»·PEaware :: N822JH KTVL-KSTS

N822JH :: KTVL-KSTS

FLIGHT INFORMATION

Flight Status: Arrived
Operator: Privately registered:
United States
More flights under this callsign
Pilot: Anonymous 23149 (23149)
Aircraft: PIPER PA-24 COMMANCHE
(PA24)
More flights by this aircraft type
Origin: KTVL Lake Tahoe
United States
Destination: KSTS Sonoma Co
United States
More flights between these airports :: More routes between these airports
Route: DIR
File this flight plan on PilotEdge
Remarks:
Altitude:
(Current/Filed)
105ft
Speed:
(Current/Filed)
162kts
Departed: 16-Aug-19 09:31 AM
Arrived: 16-Aug-19 10:33 AM
Distance/Time
Traveled:
134nm/1:02
Distance/Time
To Go:
Arrived

Flight Plot

Page will automatically refresh every two minutes.

Flight plan parsing failed; only flown route is shown


Map Options




Map Legend


Flown Route
Filed Route
Departure Airport
Arrival Airport
Navaid (VOR, NDB)
Fix

Horizontal Profiles

Position Reports

Time Latitude Longitude Heading Altitude Ground
Speed
16-Aug-19 09:13 38.893419 -119.997675 287 6262ft 0kts
16-Aug-19 09:14 38.893419 -119.997675 287 6262ft 0kts
16-Aug-19 09:15 38.893419 -119.997675 287 6262ft 0kts
16-Aug-19 09:16 38.893419 -119.997675 287 6262ft 0kts
16-Aug-19 09:17 38.893419 -119.997675 287 6262ft 0kts
16-Aug-19 09:18 38.893420 -119.997678 287 6262ft 0kts
16-Aug-19 09:19 38.893421 -119.997682 287 6262ft 0kts
16-Aug-19 09:20 38.893422 -119.997685 287 6262ft 0kts
16-Aug-19 09:21 38.893423 -119.997689 287 6262ft 0kts
16-Aug-19 09:22 38.893424 -119.997694 287 6262ft 0kts
16-Aug-19 09:23 38.892356 -119.997322 122 6262ft 7kts
16-Aug-19 09:24 38.889562 -119.997621 192 6262ft 18kts
16-Aug-19 09:25 38.884282 -119.999187 193 6262ft 20kts
16-Aug-19 09:26 38.882778 -119.999624 104 6262ft 0kts
16-Aug-19 09:27 38.882775 -119.999612 104 6262ft 0kts
16-Aug-19 09:28 38.882727 -119.999499 116 6262ft 0kts
16-Aug-19 09:29 38.882652 -119.999287 108 6262ft 4kts
16-Aug-19 09:30 38.891545 -119.996208 11 6303ft 91kts
16-Aug-19 09:31 38.920392 -119.990092 10 7186ft 109kts
16-Aug-19 09:32 38.950956 -119.983602 14 8190ft 118kts
16-Aug-19 09:33 38.983003 -119.980533 323 9159ft 120kts
16-Aug-19 09:34 39.011384 -120.009439 326 9858ft 134kts
16-Aug-19 09:35 39.038553 -120.042795 312 10387ft 146kts
16-Aug-19 09:36 39.074676 -120.073555 340 10470ft 165kts
16-Aug-19 09:37 39.104239 -120.114982 296 10469ft 162kts
16-Aug-19 09:38 39.125568 -120.165796 296 10477ft 159kts
16-Aug-19 09:39 39.147306 -120.216537 298 10476ft 164kts
16-Aug-19 09:40 39.169033 -120.267359 289 10468ft 159kts
16-Aug-19 09:41 39.171252 -120.322443 255 10470ft 154kts
16-Aug-19 09:42 39.149505 -120.369926 225 10468ft 159kts
16-Aug-19 09:43 39.116506 -120.407626 233 10450ft 156kts
16-Aug-19 09:44 39.103367 -120.460011 257 10441ft 154kts
16-Aug-19 09:45 39.094605 -120.514006 257 10436ft 154kts
16-Aug-19 09:46 39.085886 -120.568733 257 10440ft 160kts
16-Aug-19 09:47 39.076597 -120.624952 257 10425ft 157kts
16-Aug-19 09:48 39.062274 -120.678313 247 10430ft 165kts
16-Aug-19 09:49 39.047035 -120.733999 248 10375ft 162kts
16-Aug-19 09:50 39.033293 -120.788108 252 10293ft 161kts
16-Aug-19 09:51 39.021440 -120.837483 254 10263ft 159kts
16-Aug-19 09:52 39.008501 -120.890203 250 10524ft 151kts
16-Aug-19 09:53 38.994821 -120.943203 247 10521ft 157kts
16-Aug-19 09:54 38.981257 -120.997419 253 10510ft 165kts
16-Aug-19 09:55 38.968816 -121.048178 254 10492ft 161kts
16-Aug-19 09:56 38.955063 -121.102017 249 10488ft 158kts
16-Aug-19 09:57 38.941069 -121.156272 251 10490ft 167kts
16-Aug-19 09:58 38.927127 -121.213552 254 10465ft 170kts
16-Aug-19 09:59 38.913049 -121.269867 251 10422ft 162kts
16-Aug-19 10:00 38.899089 -121.323485 247 9932ft 160kts
16-Aug-19 10:01 38.884855 -121.378687 250 8579ft 162kts
16-Aug-19 10:02 38.871278 -121.434073 253 7146ft 161kts
16-Aug-19 10:03 38.857189 -121.487826 247 6413ft 161kts
16-Aug-19 10:04 38.843190 -121.541696 247 6403ft 161kts
16-Aug-19 10:05 38.829443 -121.595631 252 6412ft 160kts
16-Aug-19 10:06 38.816100 -121.649242 249 6410ft 156kts
16-Aug-19 10:07 38.801972 -121.702976 247 6415ft 162kts
16-Aug-19 10:08 38.787579 -121.757983 254 6419ft 165kts
16-Aug-19 10:09 38.773868 -121.812200 250 6408ft 153kts
16-Aug-19 10:10 38.760156 -121.862763 246 6419ft 148kts
16-Aug-19 10:11 38.746562 -121.913915 252 6433ft 159kts
16-Aug-19 10:12 38.732958 -121.968363 252 6432ft 162kts
16-Aug-19 10:13 38.718783 -122.022278 248 6429ft 159kts
16-Aug-19 10:14 38.704694 -122.075833 250 6432ft 162kts
16-Aug-19 10:15 38.692183 -122.126795 251 5916ft 133kts
16-Aug-19 10:16 38.679800 -122.171605 248 4881ft 137kts
16-Aug-19 10:17 38.667827 -122.216335 252 4449ft 151kts
16-Aug-19 10:18 38.654893 -122.265376 255 4420ft 160kts
16-Aug-19 10:19 38.641423 -122.317947 252 4443ft 156kts
16-Aug-19 10:20 38.627307 -122.369626 248 4451ft 152kts
16-Aug-19 10:21 38.613713 -122.420779 255 4454ft 152kts
16-Aug-19 10:22 38.601917 -122.467046 253 4449ft 151kts
16-Aug-19 10:23 38.587943 -122.517528 248 4455ft 152kts
16-Aug-19 10:24 38.577060 -122.568855 262 4145ft 149kts
16-Aug-19 10:25 38.572319 -122.622212 268 3307ft 150kts
16-Aug-19 10:26 38.568248 -122.674907 263 2563ft 143kts
16-Aug-19 10:27 38.563081 -122.724466 266 1795ft 135kts
16-Aug-19 10:28 38.561478 -122.769815 269 1134ft 122kts
16-Aug-19 10:29 38.553489 -122.809945 253 1057ft 112kts
16-Aug-19 10:30 38.532986 -122.828974 121 840ft 115kts
16-Aug-19 10:31 38.517276 -122.813630 159 207ft 77kts
16-Aug-19 10:32 38.507307 -122.807733 85 128ft 5kts
16-Aug-19 10:33 38.507324 -122.807005 90 128ft 1kts
16-Aug-19 10:34 38.507483 -122.805710 356 128ft 1kts
16-Aug-19 10:35 38.507510 -122.805712 356 128ft 0kts
16-Aug-19 10:36 38.507531 -122.805695 355 128ft 0kts

Navigation Log

Ident Type
Flight plan parsing failed, navigation log unavailable